createdAt,value
2022-09-28T00:01:13.905Z,10.50
2022-09-28T00:06:19.339Z,10.40
2022-09-28T00:11:23.520Z,10.20
2022-09-28T00:16:33.164Z,9.90
2022-09-28T00:21:38.333Z,9.70
2022-09-28T00:26:42.906Z,9.60
2022-09-28T00:31:46.204Z,9.50
2022-09-28T00:36:49.533Z,9.30
2022-09-28T00:41:52.263Z,9.50
2022-09-28T00:47:20.272Z,9.60
2022-09-28T00:52:44.908Z,9.50
2022-09-28T00:57:52.283Z,9.60
2022-09-28T01:02:55.373Z,9.80
2022-09-28T01:07:58.590Z,9.80
2022-09-28T01:13:01.268Z,9.80
2022-09-28T01:18:09.853Z,9.80
2022-09-28T01:24:03.197Z,9.70
2022-09-28T01:29:22.138Z,9.70
2022-09-28T01:34:32.076Z,9.60
2022-09-28T01:39:39.816Z,9.60
2022-09-28T01:44:46.157Z,9.60
2022-09-28T01:50:17.712Z,9.70
2022-09-28T01:55:32.153Z,9.80
2022-09-28T02:00:41.895Z,9.90
2022-09-28T02:06:16.275Z,9.90
2022-09-28T02:11:21.214Z,9.90
2022-09-28T02:16:48.087Z,9.90
2022-09-28T02:22:17.173Z,9.80
2022-09-28T02:27:28.122Z,9.60
2022-09-28T02:32:35.158Z,9.30
2022-09-28T02:37:39.058Z,9.10
2022-09-28T02:43:06.875Z,9.00
2022-09-28T02:48:31.460Z,8.80
2022-09-28T02:54:02.027Z,8.60
2022-09-28T02:59:37.194Z,8.50
2022-09-28T03:04:58.737Z,8.30
2022-09-28T03:10:14.048Z,8.00
2022-09-28T03:15:21.560Z,7.80
2022-09-28T03:20:24.409Z,7.50
2022-09-28T03:25:27.511Z,7.40
2022-09-28T03:30:30.310Z,7.10
2022-09-28T03:35:33.886Z,7.10
2022-09-28T03:40:36.628Z,6.90
2022-09-28T03:45:39.705Z,6.80
2022-09-28T03:50:42.518Z,6.70
2022-09-28T03:55:45.698Z,6.50
2022-09-28T04:00:49.615Z,6.50
2022-09-28T04:05:53.529Z,6.50
2022-09-28T04:11:01.228Z,6.40
2022-09-28T04:16:05.831Z,6.30
2022-09-28T04:21:14.361Z,6.30
2022-09-28T04:26:25.012Z,6.20
2022-09-28T04:31:29.470Z,6.20
2022-09-28T04:36:32.196Z,6.20
2022-09-28T04:41:35.072Z,6.10
2022-09-28T04:46:38.083Z,6.10
2022-09-28T04:51:59.473Z,6.10
2022-09-28T04:57:03.737Z,6.00
2022-09-28T05:02:06.738Z,6.30
2022-09-28T05:07:15.535Z,6.60
2022-09-28T05:12:19.896Z,6.70
2022-09-28T05:17:23.993Z,6.80
2022-09-28T05:22:38.103Z,7.20
2022-09-28T05:27:43.758Z,7.30
2022-09-28T05:33:10.767Z,7.50
2022-09-28T05:38:20.674Z,7.50
2022-09-28T05:43:23.916Z,7.60
2022-09-28T05:48:27.406Z,7.70
2022-09-28T05:53:30.479Z,7.90
2022-09-28T05:58:34.852Z,8.20
2022-09-28T06:03:38.461Z,8.80
2022-09-28T06:08:46.628Z,9.30
2022-09-28T06:14:14.030Z,9.30
2022-09-28T06:19:17.741Z,9.70
2022-09-28T06:24:55.964Z,9.90
2022-09-28T06:30:02.585Z,10.30
2022-09-28T06:35:07.001Z,10.30
2022-09-28T06:40:10.477Z,10.50
2022-09-28T06:45:13.836Z,10.60
2022-09-28T06:50:32.673Z,10.70
2022-09-28T06:55:54.084Z,10.90
2022-09-28T07:01:00.609Z,11.00
2022-09-28T07:06:06.028Z,11.00
2022-09-28T07:11:45.024Z,11.10
2022-09-28T07:17:13.163Z,11.20
2022-09-28T07:22:19.427Z,11.40
2022-09-28T07:27:28.734Z,11.40
2022-09-28T07:32:48.360Z,11.60
2022-09-28T07:38:06.915Z,11.70
2022-09-28T07:43:09.851Z,11.80
2022-09-28T07:48:13.196Z,11.90
2022-09-28T07:53:57.447Z,12.00
2022-09-28T07:59:23.435Z,12.30
2022-09-28T08:04:45.393Z,12.50
2022-09-28T08:09:49.284Z,12.80
2022-09-28T08:15:04.857Z,12.80
2022-09-28T08:20:48.112Z,12.80
2022-09-28T08:25:54.457Z,13.00
2022-09-28T08:31:01.928Z,13.80
2022-09-28T08:36:09.447Z,14.00
2022-09-28T08:42:00.334Z,14.70
2022-09-28T08:47:43.387Z,13.90
2022-09-28T08:53:32.498Z,15.70
2022-09-28T08:58:48.506Z,16.20
2022-09-28T09:03:53.252Z,14.90
2022-09-28T09:09:39.632Z,15.10
2022-09-28T09:15:10.342Z,15.50
2022-09-28T09:20:24.254Z,15.40
2022-09-28T09:26:21.809Z,16.30
2022-09-28T09:31:40.560Z,17.00
2022-09-28T09:36:53.372Z,18.20
2022-09-28T09:42:34.140Z,17.10
2022-09-28T09:48:11.245Z,18.80
2022-09-28T09:53:39.194Z,18.60
2022-09-28T09:58:50.437Z,19.90
2022-09-28T10:04:01.052Z,18.30
2022-09-28T10:09:06.144Z,19.30
2022-09-28T10:14:21.693Z,19.40
2022-09-28T10:19:34.658Z,19.70
2022-09-28T10:25:09.175Z,21.50
2022-09-28T10:30:15.409Z,21.30
2022-09-28T10:35:23.308Z,21.50
2022-09-28T10:40:47.604Z,21.10
2022-09-28T10:46:14.448Z,22.70
2022-09-28T10:51:51.900Z,21.40
2022-09-28T10:57:01.233Z,19.10
2022-09-28T11:02:26.672Z,18.40
2022-09-28T11:07:48.340Z,17.60
2022-09-28T11:13:01.572Z,17.20
2022-09-28T11:18:25.642Z,16.90
2022-09-28T11:23:31.372Z,16.80
2022-09-28T11:28:43.810Z,16.60
2022-09-28T11:34:15.516Z,17.40
2022-09-28T11:39:42.829Z,17.80
2022-09-28T11:45:05.071Z,18.70
2022-09-28T11:50:34.050Z,20.20
2022-09-28T11:55:47.222Z,21.50
2022-09-28T12:01:02.280Z,21.90
2022-09-28T12:06:36.983Z,21.20
2022-09-28T12:11:44.348Z,21.50
2022-09-28T12:17:19.982Z,22.70
2022-09-28T12:22:46.444Z,22.50
2022-09-28T12:27:59.938Z,22.60
2022-09-28T12:33:07.705Z,23.00
2022-09-28T12:38:36.105Z,22.80
2022-09-28T12:44:09.374Z,22.50
2022-09-28T13:00:25.079Z,24.40
2022-09-28T13:05:30.919Z,22.70
2022-09-28T13:10:49.771Z,24.20
2022-09-28T13:16:01.917Z,21.80
2022-09-28T13:21:15.225Z,21.20
2022-09-28T13:26:24.012Z,19.90
2022-09-28T13:31:34.038Z,19.80
2022-09-28T13:36:43.457Z,19.30
2022-09-28T13:41:51.537Z,18.90
2022-09-28T13:47:20.516Z,18.80
2022-09-28T13:52:28.083Z,18.40
2022-09-28T13:58:05.715Z,18.20
2022-09-28T14:03:45.656Z,18.00
2022-09-28T14:09:16.437Z,17.80
2022-09-28T14:14:29.460Z,17.30
2022-09-28T14:19:34.713Z,17.20
2022-09-28T14:25:06.741Z,17.00
2022-09-28T14:30:12.368Z,16.60
2022-09-28T14:35:31.706Z,16.10
2022-09-28T14:41:10.328Z,15.90
2022-09-28T14:46:15.908Z,15.50
2022-09-28T14:51:30.368Z,15.30
2022-09-28T14:56:53.466Z,15.00
2022-09-28T15:02:06.000Z,15.00
2022-09-28T15:07:27.443Z,14.90
2022-09-28T15:12:33.427Z,14.90
2022-09-28T15:17:40.548Z,15.00
2022-09-28T15:22:49.044Z,15.00
2022-09-28T15:28:13.545Z,14.90
2022-09-28T15:33:54.404Z,14.80
2022-09-28T15:39:06.914Z,14.70
2022-09-28T15:44:13.289Z,14.80
2022-09-28T15:49:38.944Z,14.80
2022-09-28T15:54:46.003Z,15.00
2022-09-28T15:59:57.312Z,15.00
2022-09-28T16:05:01.998Z,15.00
2022-09-28T16:10:13.854Z,14.80
2022-09-28T16:15:21.844Z,14.80
2022-09-28T16:20:39.184Z,14.50
2022-09-28T16:26:09.004Z,14.50
2022-09-28T16:31:17.458Z,14.50
2022-09-28T16:36:22.699Z,14.50
2022-09-28T16:41:29.144Z,14.50
2022-09-28T16:46:37.787Z,14.40
2022-09-28T16:51:40.659Z,14.40
2022-09-28T16:56:43.581Z,14.30
2022-09-28T17:01:46.966Z,14.30
2022-09-28T17:06:51.467Z,14.30
2022-09-28T17:11:56.354Z,14.40
2022-09-28T17:17:08.901Z,14.30
2022-09-28T17:22:14.479Z,13.90
2022-09-28T17:27:20.194Z,13.90
2022-09-28T17:32:23.015Z,14.00
2022-09-28T17:37:25.873Z,13.80
2022-09-28T17:42:28.609Z,13.60
2022-09-28T17:47:34.325Z,13.40
2022-09-28T17:52:37.572Z,13.40
2022-09-28T17:57:40.519Z,13.30
2022-09-28T18:02:44.814Z,13.30
2022-09-28T18:07:48.368Z,13.50
2022-09-28T18:12:51.634Z,13.30
2022-09-28T18:17:54.632Z,13.20
2022-09-28T18:22:58.058Z,13.00
2022-09-28T18:28:01.749Z,13.00
2022-09-28T18:33:05.212Z,13.10
2022-09-28T18:38:08.115Z,13.00
2022-09-28T18:43:10.859Z,12.80
2022-09-28T18:48:13.707Z,12.80
2022-09-28T18:53:18.189Z,12.60
2022-09-28T18:58:20.933Z,12.70
2022-09-28T19:03:23.838Z,12.60
2022-09-28T19:08:27.827Z,12.40
2022-09-28T19:13:30.992Z,12.40
2022-09-28T19:18:34.234Z,12.20
2022-09-28T19:23:38.581Z,12.20
2022-09-28T19:28:41.624Z,12.40
2022-09-28T19:33:46.871Z,12.70
2022-09-28T19:38:51.551Z,13.00
2022-09-28T19:43:56.066Z,13.10
2022-09-28T19:49:06.582Z,12.90
2022-09-28T19:54:11.239Z,12.70
2022-09-28T19:59:14.638Z,12.70
2022-09-28T20:04:17.982Z,12.60
2022-09-28T20:09:23.903Z,12.50
2022-09-28T20:14:32.831Z,12.40
2022-09-28T20:19:37.123Z,12.30
2022-09-28T20:24:40.075Z,12.40
2022-09-28T20:29:43.433Z,12.30
2022-09-28T20:34:46.668Z,12.30
2022-09-28T20:39:49.594Z,12.20
2022-09-28T20:44:52.560Z,12.10
2022-09-28T20:49:55.887Z,12.10
2022-09-28T20:54:59.026Z,12.10
2022-09-28T21:00:02.257Z,12.10
2022-09-28T21:05:07.318Z,12.10
2022-09-28T21:10:10.585Z,12.00
2022-09-28T21:15:13.575Z,11.80
2022-09-28T21:20:16.429Z,11.90
2022-09-28T21:25:19.219Z,11.80
2022-09-28T21:30:22.103Z,11.90
2022-09-28T21:35:25.031Z,11.90
2022-09-28T21:40:27.965Z,11.90
2022-09-28T21:45:32.575Z,12.00
2022-09-28T21:50:35.784Z,12.00
2022-09-28T21:55:38.908Z,12.10
2022-09-28T22:00:41.610Z,12.00
2022-09-28T22:05:44.600Z,12.10
2022-09-28T22:11:00.078Z,12.10
2022-09-28T22:16:03.309Z,12.10
2022-09-28T22:21:12.771Z,12.10
2022-09-28T22:26:25.134Z,12.00
2022-09-28T22:31:30.711Z,11.90
2022-09-28T22:36:33.913Z,11.90
2022-09-28T22:41:36.721Z,11.80
2022-09-28T22:46:39.877Z,11.90
2022-09-28T22:51:42.843Z,11.80
2022-09-28T22:56:45.980Z,11.90
2022-09-28T23:01:48.859Z,11.90
2022-09-28T23:06:51.705Z,11.90
2022-09-28T23:11:54.357Z,11.90
2022-09-28T23:16:57.140Z,11.80
2022-09-28T23:21:59.895Z,11.80
2022-09-28T23:27:02.582Z,11.80
2022-09-28T23:32:05.490Z,11.80
2022-09-28T23:37:08.232Z,11.70
2022-09-28T23:42:11.026Z,11.60
2022-09-28T23:47:13.729Z,11.60
2022-09-28T23:52:16.517Z,11.60
2022-09-28T23:57:19.402Z,11.60
